SDOL weather

Agropesp Airport
Tapurá, Mato Grosso, Brazil

Public forecast

Using degrees Celsius for public forecast. Weather courtesy of forecast.io.

Closest aviation weather report (METAR) to Agropesp Airport

Report is more than 2 hours old.

Closest report is Brigadeiro Camarão Airport, 216.9 nm (401.6 km) W. Retrieved 2020/06/05 23:00 UTC (5 hours ago):

SBVH 052300Z 25004KT 9999 FEW020 BKN100 24/22 Q1018

Closest aviation forecast (TAF) to Agropesp Airport

Closest forecast is Brigadeiro Camarão Airport, 216.9 nm (401.6 km) W. Retrieved 2020-06-06 00:42 UTC (4 hours ago):

TAF SBVH 052100Z 0600/0612 08006KT CAVOK TN20/0605Z TX25/0612Z RMK PEG